createdAt,value
2018-03-30T00:01:30.438Z,8.93
2018-03-30T00:03:58.880Z,6.90
2018-03-30T00:06:28.307Z,7.70
2018-03-30T00:08:56.499Z,6.60
2018-03-30T00:11:29.026Z,7.70
2018-03-30T00:13:57.559Z,9.77
2018-03-30T00:16:26.122Z,8.63
2018-03-30T00:18:54.472Z,9.10
2018-03-30T00:21:23.094Z,8.57
2018-03-30T00:23:51.562Z,8.27
2018-03-30T00:26:19.759Z,8.80
2018-03-30T00:28:48.319Z,7.33
2018-03-30T00:31:17.017Z,7.33
2018-03-30T00:33:45.292Z,7.07
2018-03-30T00:36:13.772Z,7.77
2018-03-30T00:38:42.657Z,8.10
2018-03-30T00:41:11.238Z,10.10
2018-03-30T00:43:39.565Z,8.40
2018-03-30T00:46:08.414Z,7.40
2018-03-30T00:48:37.979Z,6.97
2018-03-30T00:51:06.294Z,6.30
2018-03-30T00:53:51.661Z,5.63
2018-03-30T00:56:21.376Z,7.00
2018-03-30T00:58:49.957Z,6.23
2018-03-30T01:01:18.436Z,6.20
2018-03-30T01:03:47.172Z,5.87
2018-03-30T01:06:15.506Z,5.23
2018-03-30T01:08:44.387Z,5.90
2018-03-30T01:11:12.733Z,6.87
2018-03-30T01:13:41.270Z,9.17
2018-03-30T01:16:09.928Z,8.83
2018-03-30T01:18:38.411Z,10.10
2018-03-30T01:21:06.793Z,9.30
2018-03-30T01:23:35.278Z,8.03
2018-03-30T01:26:03.739Z,7.53
2018-03-30T01:28:32.555Z,9.77
2018-03-30T01:31:01.131Z,11.60
2018-03-30T01:33:29.510Z,10.57
2018-03-30T01:35:57.995Z,11.27
2018-03-30T01:38:26.355Z,11.70
2018-03-30T01:40:54.636Z,12.23
2018-03-30T01:43:23.136Z,11.80
2018-03-30T01:45:51.496Z,11.07
2018-03-30T01:48:19.896Z,10.43
2018-03-30T01:50:48.038Z,11.07
2018-03-30T01:53:16.568Z,13.00
2018-03-30T01:55:44.908Z,15.23
2018-03-30T01:58:13.143Z,12.57
2018-03-30T02:00:41.666Z,9.93
2018-03-30T02:03:09.936Z,10.90
2018-03-30T02:05:38.427Z,8.90
2018-03-30T02:08:06.941Z,10.07
2018-03-30T02:10:35.579Z,7.67
2018-03-30T02:13:03.870Z,8.37
2018-03-30T02:15:32.451Z,9.63
2018-03-30T02:18:01.023Z,6.10
2018-03-30T02:20:29.307Z,7.73
2018-03-30T02:22:57.890Z,8.67
2018-03-30T02:25:26.568Z,8.90
2018-03-30T02:27:54.984Z,8.23
2018-03-30T02:30:23.332Z,7.00
2018-03-30T02:32:51.909Z,8.80
2018-03-30T02:35:20.301Z,7.13
2018-03-30T02:37:48.888Z,8.90
2018-03-30T02:40:17.548Z,8.57
2018-03-30T02:42:46.038Z,13.10
2018-03-30T02:45:14.200Z,12.87
2018-03-30T02:47:42.783Z,10.70
2018-03-30T02:50:11.192Z,13.47
2018-03-30T02:52:39.958Z,15.13
2018-03-30T02:55:08.232Z,15.40
2018-03-30T02:57:36.729Z,11.50
2018-03-30T03:00:05.011Z,11.40
2018-03-30T03:02:33.362Z,11.20
2018-03-30T03:05:01.959Z,13.03
2018-03-30T03:07:31.261Z,14.20
2018-03-30T03:09:59.748Z,13.23
2018-03-30T03:12:28.510Z,14.43
2018-03-30T03:14:56.923Z,12.97
2018-03-30T03:17:25.387Z,12.33
2018-03-30T03:19:53.955Z,13.10
2018-03-30T03:22:22.634Z,13.70
2018-03-30T03:24:51.165Z,12.90
2018-03-30T03:27:19.721Z,15.53
2018-03-30T03:29:48.189Z,14.43
2018-03-30T03:32:16.475Z,15.10
2018-03-30T03:34:45.145Z,13.67
2018-03-30T03:37:13.795Z,14.23
2018-03-30T03:39:42.124Z,16.47
2018-03-30T03:42:10.597Z,19.53
2018-03-30T03:44:38.784Z,16.77
2018-03-30T03:47:07.136Z,16.33
2018-03-30T03:49:35.533Z,17.37
2018-03-30T03:52:04.094Z,17.70
2018-03-30T03:54:32.646Z,98.20
2018-03-30T03:57:00.991Z,194.00
2018-03-30T03:59:29.643Z,79.73
2018-03-30T04:01:57.947Z,41.33
2018-03-30T04:04:26.495Z,33.37
2018-03-30T04:06:55.083Z,225.40
2018-03-30T04:09:23.474Z,55.20
2018-03-30T04:11:51.938Z,70.97
2018-03-30T04:14:20.624Z,46.80
2018-03-30T04:16:48.920Z,39.80
2018-03-30T04:19:17.285Z,45.97
2018-03-30T04:21:45.918Z,41.67
2018-03-30T04:24:14.246Z,41.67
2018-03-30T04:26:42.584Z,36.50
2018-03-30T04:29:11.014Z,53.50
2018-03-30T04:31:39.680Z,48.60
2018-03-30T04:34:07.923Z,33.73
2018-03-30T04:36:36.558Z,29.83
2018-03-30T04:39:05.959Z,28.97
2018-03-30T04:41:34.698Z,40.33
2018-03-30T04:44:03.206Z,31.03
2018-03-30T04:46:31.700Z,24.50
2018-03-30T04:49:00.887Z,21.83
2018-03-30T04:51:29.322Z,23.03
2018-03-30T04:53:57.848Z,24.30
2018-03-30T04:56:26.523Z,26.87
2018-03-30T04:58:55.340Z,22.63
2018-03-30T05:01:23.923Z,30.33
2018-03-30T05:03:52.328Z,40.57
2018-03-30T05:06:20.864Z,43.60
2018-03-30T05:08:49.260Z,38.93
2018-03-30T05:11:17.820Z,39.87
2018-03-30T05:13:45.964Z,39.57
2018-03-30T05:16:14.324Z,33.50
2018-03-30T05:18:42.972Z,19.07
2018-03-30T05:21:11.506Z,12.03
2018-03-30T05:23:39.754Z,13.63
2018-03-30T05:26:08.019Z,9.03
2018-03-30T05:28:36.280Z,11.57
2018-03-30T05:31:04.657Z,17.67
2018-03-30T05:33:33.243Z,24.90
2018-03-30T05:36:02.016Z,25.90
2018-03-30T05:38:30.310Z,23.80
2018-03-30T05:40:58.666Z,21.37
2018-03-30T05:43:27.055Z,21.13
2018-03-30T05:45:55.429Z,21.47
2018-03-30T05:48:23.918Z,21.13
2018-03-30T05:50:52.383Z,23.60
2018-03-30T05:53:20.669Z,25.30
2018-03-30T05:55:49.182Z,22.50
2018-03-30T05:58:17.722Z,18.83
2018-03-30T06:00:46.116Z,21.77
2018-03-30T06:03:14.378Z,24.23
2018-03-30T06:05:42.662Z,21.47
2018-03-30T06:08:11.340Z,22.60
2018-03-30T06:10:39.787Z,19.27
2018-03-30T06:13:08.421Z,18.77
2018-03-30T06:15:36.423Z,16.60
2018-03-30T06:18:04.955Z,18.33
2018-03-30T06:20:33.385Z,17.20
2018-03-30T06:23:01.812Z,17.53
2018-03-30T06:25:30.098Z,15.80
2018-03-30T06:27:58.679Z,20.23
2018-03-30T06:30:26.968Z,20.67
2018-03-30T06:32:55.731Z,19.50
2018-03-30T06:35:24.023Z,20.57
2018-03-30T06:37:52.695Z,19.03
2018-03-30T06:40:21.039Z,16.10
2018-03-30T06:42:49.364Z,16.10
2018-03-30T06:45:18.035Z,11.23
2018-03-30T06:47:46.456Z,11.70
2018-03-30T06:50:14.798Z,11.80
2018-03-30T06:52:43.167Z,13.13
2018-03-30T06:55:11.554Z,12.27
2018-03-30T06:57:40.170Z,11.93
2018-03-30T07:00:08.785Z,11.53
2018-03-30T07:02:37.311Z,13.37
2018-03-30T07:05:05.304Z,12.93
2018-03-30T07:07:33.372Z,11.00
2018-03-30T07:10:01.313Z,14.10
2018-03-30T07:12:29.894Z,13.93
2018-03-30T07:14:58.788Z,11.83
2018-03-30T07:17:27.194Z,13.03
2018-03-30T07:19:55.447Z,12.17
2018-03-30T07:22:24.022Z,12.77
2018-03-30T07:24:52.508Z,11.30
2018-03-30T07:27:20.676Z,11.13
2018-03-30T07:29:48.608Z,14.17
2018-03-30T07:32:16.743Z,11.50
2018-03-30T07:34:44.796Z,11.77
2018-03-30T07:37:12.859Z,12.37
2018-03-30T07:39:40.836Z,12.33
2018-03-30T07:42:08.817Z,12.80
2018-03-30T07:44:36.835Z,12.10
2018-03-30T07:47:04.851Z,10.10
2018-03-30T07:49:33.259Z,11.37
2018-03-30T07:52:01.782Z,10.33
2018-03-30T07:54:30.171Z,11.47
2018-03-30T07:56:58.212Z,8.87
2018-03-30T07:59:26.510Z,9.50
2018-03-30T08:01:54.922Z,11.00
2018-03-30T08:04:23.483Z,9.70
2018-03-30T08:06:51.666Z,9.53
2018-03-30T08:09:20.014Z,8.40
2018-03-30T08:11:48.607Z,8.90
2018-03-30T08:14:16.990Z,8.60
2018-03-30T08:16:45.767Z,10.53
2018-03-30T08:19:14.058Z,7.50
2018-03-30T08:21:42.430Z,8.63
2018-03-30T08:24:10.913Z,7.70
2018-03-30T08:26:39.588Z,7.20
2018-03-30T08:29:08.172Z,7.40
2018-03-30T08:31:36.312Z,8.13
2018-03-30T08:34:04.920Z,7.00
2018-03-30T08:36:33.532Z,7.03
2018-03-30T08:39:02.086Z,8.17
2018-03-30T08:41:30.473Z,6.80
2018-03-30T08:43:59.047Z,6.43
2018-03-30T08:46:27.569Z,6.73
2018-03-30T08:48:56.215Z,6.03
2018-03-30T08:51:24.498Z,5.80
2018-03-30T08:53:53.076Z,6.10
2018-03-30T08:56:21.577Z,6.60
2018-03-30T08:58:49.561Z,6.30
2018-03-30T09:01:18.102Z,6.50
2018-03-30T09:03:46.782Z,6.83
2018-03-30T09:06:15.130Z,7.33
2018-03-30T09:08:43.102Z,7.43
2018-03-30T09:11:11.209Z,7.23
2018-03-30T09:13:39.242Z,8.20
2018-03-30T09:16:07.303Z,7.00
2018-03-30T09:18:35.658Z,7.70
2018-03-30T09:21:03.613Z,8.60
2018-03-30T09:23:31.599Z,7.77
2018-03-30T09:25:59.603Z,7.43
2018-03-30T09:28:27.636Z,7.73
2018-03-30T09:30:55.621Z,7.20
2018-03-30T09:33:28.511Z,7.10
2018-03-30T09:35:56.501Z,7.90
2018-03-30T09:38:24.512Z,5.67
2018-03-30T09:40:52.568Z,5.30
2018-03-30T09:43:20.602Z,6.53
2018-03-30T09:45:48.590Z,6.33
2018-03-30T09:48:16.610Z,7.57
2018-03-30T09:50:44.636Z,7.20
2018-03-30T09:53:12.641Z,5.63
2018-03-30T09:55:40.622Z,6.57
2018-03-30T09:58:08.664Z,7.03
2018-03-30T10:00:36.770Z,6.70
2018-03-30T10:03:04.730Z,6.80
2018-03-30T10:05:32.672Z,7.63
2018-03-30T10:08:00.682Z,6.50
2018-03-30T10:10:28.741Z,7.37
2018-03-30T10:12:56.734Z,5.27
2018-03-30T10:15:24.853Z,6.60
2018-03-30T10:17:52.863Z,6.00
2018-03-30T10:20:21.098Z,6.50
2018-03-30T10:22:49.112Z,7.67
2018-03-30T10:25:17.076Z,6.57
2018-03-30T10:27:45.041Z,5.53
2018-03-30T10:30:13.088Z,4.37
2018-03-30T10:32:41.175Z,6.20
2018-03-30T10:35:09.215Z,5.70
2018-03-30T10:37:37.231Z,7.10
2018-03-30T10:40:05.293Z,5.60
2018-03-30T10:42:33.330Z,5.90
2018-03-30T10:45:01.280Z,5.10
2018-03-30T10:47:29.282Z,5.53
2018-03-30T10:49:57.381Z,5.07
2018-03-30T10:52:25.442Z,6.13
2018-03-30T10:54:53.457Z,5.70
2018-03-30T10:57:21.472Z,6.13
2018-03-30T10:59:49.500Z,6.50
2018-03-30T11:02:17.511Z,6.70
2018-03-30T11:04:45.557Z,5.93
2018-03-30T11:07:13.601Z,5.33
2018-03-30T11:09:41.626Z,5.40
2018-03-30T11:12:09.595Z,5.03
2018-03-30T11:14:37.537Z,5.27
2018-03-30T11:17:05.536Z,5.67
2018-03-30T11:19:33.495Z,5.67
2018-03-30T11:22:01.833Z,5.27
2018-03-30T11:24:29.884Z,5.40
2018-03-30T11:26:57.867Z,5.27
2018-03-30T11:29:25.953Z,4.70
2018-03-30T11:31:54.056Z,5.40
2018-03-30T11:34:22.211Z,4.77
2018-03-30T11:36:50.264Z,5.63
2018-03-30T11:39:18.301Z,4.60
2018-03-30T11:41:46.333Z,7.30
2018-03-30T11:44:14.448Z,5.17
2018-03-30T11:46:42.647Z,4.80
2018-03-30T11:49:10.628Z,4.33
2018-03-30T11:51:38.670Z,4.80
2018-03-30T11:54:06.750Z,5.93
2018-03-30T11:56:34.816Z,5.47
2018-03-30T11:59:02.901Z,4.30
2018-03-30T12:01:30.927Z,5.47
2018-03-30T12:03:59.028Z,5.13
2018-03-30T12:06:27.063Z,4.87
2018-03-30T12:08:55.910Z,5.20
2018-03-30T12:11:24.999Z,4.50
2018-03-30T12:13:53.049Z,6.27
2018-03-30T12:16:21.085Z,4.80
2018-03-30T12:18:49.176Z,4.10
2018-03-30T12:21:17.257Z,3.97
2018-03-30T12:23:45.731Z,4.07
2018-03-30T12:26:13.726Z,3.90
2018-03-30T12:28:41.832Z,3.80
2018-03-30T12:31:09.891Z,5.03
2018-03-30T12:33:37.864Z,3.60
2018-03-30T12:36:06.000Z,3.50
2018-03-30T12:38:34.040Z,8.03
2018-03-30T12:41:02.082Z,3.23
2018-03-30T12:43:30.031Z,2.83
2018-03-30T12:45:58.135Z,2.10
2018-03-30T12:48:26.258Z,4.13
2018-03-30T12:50:54.330Z,4.03
2018-03-30T12:53:22.291Z,4.40
2018-03-30T12:55:50.311Z,2.57
2018-03-30T12:58:18.334Z,2.50
2018-03-30T13:00:46.275Z,2.73
2018-03-30T13:03:14.282Z,3.47
2018-03-30T13:05:42.305Z,3.03
2018-03-30T13:08:10.254Z,4.90
2018-03-30T13:10:38.293Z,5.10
2018-03-30T13:13:06.368Z,3.47
2018-03-30T13:15:34.464Z,5.03
2018-03-30T13:18:02.476Z,12.60
2018-03-30T13:20:30.491Z,3.10
2018-03-30T13:22:58.542Z,5.10
2018-03-30T13:25:26.861Z,6.10
2018-03-30T13:27:54.903Z,7.90
2018-03-30T13:30:22.971Z,3.20
2018-03-30T13:32:51.002Z,2.90
2018-03-30T13:35:18.986Z,3.07
2018-03-30T13:37:47.018Z,3.90
2018-03-30T13:40:15.064Z,3.93
2018-03-30T13:42:43.128Z,5.67
2018-03-30T13:45:11.119Z,2.50
2018-03-30T13:47:39.159Z,4.93
2018-03-30T13:50:07.266Z,2.33
2018-03-30T13:52:41.223Z,3.50
2018-03-30T13:55:09.342Z,3.73
2018-03-30T13:57:47.208Z,4.20
2018-03-30T14:00:25.049Z,2.90
2018-03-30T14:03:00.768Z,3.90
2018-03-30T14:05:31.964Z,5.47
2018-03-30T14:08:07.511Z,3.27
2018-03-30T14:10:39.293Z,2.63
2018-03-30T14:13:07.472Z,2.57
2018-03-30T14:15:37.622Z,3.07
2018-03-30T14:18:06.527Z,3.60
2018-03-30T14:20:45.430Z,2.70
2018-03-30T14:23:14.599Z,4.07
2018-03-30T14:25:45.827Z,3.47
2018-03-30T14:28:18.633Z,6.23
2018-03-30T14:30:49.264Z,3.50
2018-03-30T14:33:20.223Z,4.00
2018-03-30T14:35:52.835Z,3.37
2018-03-30T14:38:23.776Z,3.67
2018-03-30T14:40:53.722Z,3.90
2018-03-30T14:43:24.508Z,4.53
2018-03-30T14:45:53.536Z,6.27
2018-03-30T14:48:22.690Z,3.60
2018-03-30T14:50:53.597Z,5.97
2018-03-30T14:53:23.678Z,5.13
2018-03-30T14:56:07.346Z,4.77
2018-03-30T14:58:48.139Z,5.73
2018-03-30T15:04:33.582Z,3.37
2018-03-30T15:10:15.382Z,3.83
2018-03-30T15:12:50.360Z,6.97
2018-03-30T15:15:25.320Z,3.17
2018-03-30T15:17:59.707Z,8.57
2018-03-30T15:20:32.346Z,15.90
2018-03-30T15:26:08.762Z,20.73
2018-03-30T15:28:39.607Z,16.40
2018-03-30T15:31:23.548Z,5.47
2018-03-30T15:33:54.954Z,4.73
2018-03-30T15:39:28.931Z,24.60
2018-03-30T15:41:57.037Z,10.50
2018-03-30T15:44:25.912Z,7.73
2018-03-30T15:46:59.920Z,9.90
2018-03-30T15:49:30.941Z,9.80
2018-03-30T15:52:02.882Z,14.80
2018-03-30T15:54:30.278Z,13.50
2018-03-30T15:56:59.493Z,20.53
2018-03-30T15:59:27.633Z,11.23
2018-03-30T16:01:55.742Z,13.97
2018-03-30T16:04:23.885Z,11.50
2018-03-30T16:06:52.021Z,17.67
2018-03-30T16:09:52.428Z,20.23
2018-03-30T16:12:23.399Z,17.27
2018-03-30T16:14:51.555Z,19.53
2018-03-30T16:17:19.819Z,17.80
2018-03-30T16:19:48.095Z,9.87
2018-03-30T16:22:15.614Z,11.47
2018-03-30T16:24:43.126Z,12.60
2018-03-30T16:27:10.801Z,19.53
2018-03-30T16:29:38.322Z,12.50
2018-03-30T16:32:06.269Z,15.70
2018-03-30T16:34:33.790Z,11.53
2018-03-30T16:37:01.287Z,8.37
2018-03-30T16:39:28.756Z,8.70
2018-03-30T16:41:56.268Z,12.10
2018-03-30T16:44:23.739Z,8.43
2018-03-30T16:46:51.268Z,10.30
2018-03-30T16:49:18.797Z,11.13
2018-03-30T16:51:46.947Z,13.80
2018-03-30T16:54:14.959Z,12.40
2018-03-30T16:56:42.442Z,9.17
2018-03-30T16:59:09.928Z,11.93
2018-03-30T17:01:37.380Z,11.47
2018-03-30T17:04:08.213Z,12.63
2018-03-30T17:06:35.627Z,13.90
2018-03-30T17:09:03.175Z,16.93
2018-03-30T17:11:30.621Z,14.13
2018-03-30T17:13:58.201Z,21.03
2018-03-30T17:16:25.702Z,40.90
2018-03-30T17:18:55.879Z,12.10
2018-03-30T17:21:23.382Z,15.03
2018-03-30T17:23:50.976Z,17.43
2018-03-30T17:26:18.785Z,11.47
2018-03-30T17:28:46.581Z,12.27
2018-03-30T17:31:15.486Z,12.20
2018-03-30T17:33:43.047Z,13.90
2018-03-30T17:36:10.442Z,11.60
2018-03-30T17:38:37.943Z,7.63
2018-03-30T17:41:05.468Z,8.57
2018-03-30T17:43:33.007Z,6.30
2018-03-30T17:46:01.340Z,7.80
2018-03-30T17:48:28.957Z,9.40
2018-03-30T17:50:56.481Z,24.67
2018-03-30T17:53:24.003Z,84.73
2018-03-30T17:55:51.494Z,51.70
2018-03-30T17:58:18.911Z,44.57
2018-03-30T18:00:46.482Z,47.83
2018-03-30T18:03:14.013Z,30.27
2018-03-30T18:05:41.981Z,19.03
2018-03-30T18:08:09.311Z,21.37
2018-03-30T18:10:36.871Z,24.27
2018-03-30T18:13:04.289Z,20.87
2018-03-30T18:15:31.758Z,36.53
2018-03-30T18:17:59.183Z,27.93
2018-03-30T18:20:26.672Z,25.50
2018-03-30T18:22:54.126Z,23.37
2018-03-30T18:25:21.613Z,23.00
2018-03-30T18:27:49.160Z,21.77
2018-03-30T18:30:16.984Z,24.03
2018-03-30T18:32:44.489Z,26.90
2018-03-30T18:35:11.907Z,30.17
2018-03-30T18:37:39.378Z,31.00
2018-03-30T18:40:06.848Z,43.47
2018-03-30T18:42:34.319Z,55.37
2018-03-30T18:45:01.853Z,45.50
2018-03-30T18:47:29.226Z,38.30
2018-03-30T18:49:56.692Z,31.43
2018-03-30T18:52:24.191Z,32.23
2018-03-30T18:54:51.714Z,30.93
2018-03-30T18:57:19.778Z,34.23
2018-03-30T18:59:47.313Z,37.37
2018-03-30T19:02:14.783Z,32.50
2018-03-30T19:04:42.285Z,32.37
2018-03-30T19:07:10.283Z,32.03
2018-03-30T19:09:37.766Z,32.30
2018-03-30T19:12:05.210Z,34.83
2018-03-30T19:14:32.671Z,34.10
2018-03-30T19:17:00.226Z,36.20
2018-03-30T19:19:27.716Z,40.20
2018-03-30T19:21:55.170Z,37.80
2018-03-30T19:24:22.761Z,33.93
2018-03-30T19:26:50.244Z,34.97
2018-03-30T19:29:17.704Z,35.97
2018-03-30T19:31:45.367Z,31.43
2018-03-30T19:34:12.824Z,33.90
2018-03-30T19:36:40.282Z,34.43
2018-03-30T19:39:07.752Z,26.30
2018-03-30T19:41:35.255Z,23.90
2018-03-30T19:44:03.167Z,20.70
2018-03-30T19:46:31.487Z,18.37
2018-03-30T19:48:58.968Z,16.60
2018-03-30T19:51:26.314Z,18.83
2018-03-30T19:53:53.742Z,16.80
2018-03-30T19:56:21.229Z,18.93
2018-03-30T19:58:48.682Z,19.20
2018-03-30T20:01:16.151Z,16.47
2018-03-30T20:03:43.598Z,18.40
2018-03-30T20:06:11.057Z,17.40
2018-03-30T20:08:38.990Z,16.37
2018-03-30T20:11:06.816Z,15.50
2018-03-30T20:13:34.581Z,15.50
2018-03-30T20:16:02.453Z,14.73
2018-03-30T20:18:30.156Z,20.50
2018-03-30T20:20:57.833Z,23.10
2018-03-30T20:23:25.534Z,27.80
2018-03-30T20:25:53.610Z,24.30
2018-03-30T20:28:21.563Z,19.70
2018-03-30T20:30:49.718Z,17.70
2018-03-30T20:33:17.812Z,18.90
2018-03-30T20:35:45.927Z,18.47
2018-03-30T20:38:14.158Z,16.83
2018-03-30T20:40:41.919Z,15.13
2018-03-30T20:43:09.699Z,14.13
2018-03-30T20:45:37.491Z,13.80
2018-03-30T20:48:04.935Z,13.40
2018-03-30T20:50:32.396Z,27.33
2018-03-30T20:52:59.837Z,24.37
2018-03-30T20:55:27.320Z,35.77
2018-03-30T20:57:54.813Z,36.60
2018-03-30T21:00:22.291Z,17.60
2018-03-30T21:02:49.750Z,23.03
2018-03-30T21:05:17.193Z,34.30
2018-03-30T21:07:44.539Z,37.13
2018-03-30T21:10:11.981Z,34.00
2018-03-30T21:12:39.466Z,30.10
2018-03-30T21:15:06.927Z,27.20
2018-03-30T21:17:34.377Z,16.83
2018-03-30T21:20:01.858Z,14.13
2018-03-30T21:22:29.308Z,13.93
2018-03-30T21:24:56.911Z,18.53
2018-03-30T21:27:24.435Z,19.03
2018-03-30T21:29:51.932Z,21.37
2018-03-30T21:32:19.359Z,93.73
2018-03-30T21:34:47.103Z,39.60
2018-03-30T21:37:14.541Z,17.57
2018-03-30T21:39:41.985Z,13.47
2018-03-30T21:42:09.471Z,12.70
2018-03-30T21:44:36.941Z,16.83
2018-03-30T21:47:04.370Z,16.53
2018-03-30T21:49:31.936Z,13.60
2018-03-30T21:51:59.411Z,13.77
2018-03-30T21:54:26.936Z,11.80
2018-03-30T21:56:54.328Z,16.83
2018-03-30T21:59:21.756Z,13.63
2018-03-30T22:01:49.251Z,14.43
2018-03-30T22:04:16.702Z,13.20
2018-03-30T22:06:44.178Z,9.40
2018-03-30T22:09:11.648Z,7.70
2018-03-30T22:11:39.029Z,6.10
2018-03-30T22:14:06.494Z,7.10
2018-03-30T22:16:33.963Z,6.00
2018-03-30T22:19:01.400Z,7.50
2018-03-30T22:21:28.846Z,6.83
2018-03-30T22:23:56.316Z,6.40
2018-03-30T22:26:23.804Z,7.37
2018-03-30T22:28:51.240Z,6.47
2018-03-30T22:31:18.639Z,7.97
2018-03-30T22:33:46.099Z,9.33
2018-03-30T22:36:14.076Z,7.83
2018-03-30T22:38:42.045Z,8.10
2018-03-30T22:41:09.949Z,8.40
2018-03-30T22:43:37.423Z,8.67
2018-03-30T22:46:04.961Z,8.53
2018-03-30T22:48:32.436Z,6.87
2018-03-30T22:50:59.924Z,7.07
2018-03-30T22:53:27.384Z,8.10
2018-03-30T22:55:54.859Z,7.37
2018-03-30T22:58:22.327Z,6.50
2018-03-30T23:00:50.116Z,6.23
2018-03-30T23:03:18.286Z,7.03
2018-03-30T23:05:45.754Z,8.27
2018-03-30T23:08:13.159Z,10.30
2018-03-30T23:10:40.627Z,7.97
2018-03-30T23:13:08.089Z,9.43
2018-03-30T23:15:35.542Z,10.70
2018-03-30T23:18:02.981Z,11.00
2018-03-30T23:20:30.416Z,10.30
2018-03-30T23:22:57.879Z,9.40
2018-03-30T23:25:25.335Z,12.13
2018-03-30T23:27:52.792Z,10.57
2018-03-30T23:30:20.263Z,8.80
2018-03-30T23:32:47.797Z,8.73
2018-03-30T23:35:15.247Z,8.80
2018-03-30T23:37:42.874Z,7.50
2018-03-30T23:40:10.351Z,8.90
2018-03-30T23:42:37.808Z,10.83
2018-03-30T23:45:05.249Z,14.10
2018-03-30T23:47:32.714Z,16.17
2018-03-30T23:50:00.148Z,13.50
2018-03-30T23:52:27.635Z,12.00
2018-03-30T23:54:55.121Z,12.80
2018-03-30T23:57:22.562Z,12.00
2018-03-30T23:59:50.008Z,9.50
